Christian Wind

Olheiro - OB
22 Fev 2028
Terça-feira
Processo

Personalidade

Adaptabilidade (2) Ambição (13) Controvérsia (4) Lealdade (1) Pressão (17) Profissionalismo (14) Espírito Esportivo (10) Temperamento (2)

Perfil

Estilo de Treinamento Democrático
Licença Continental C
Determinação 8
Gestão de Pessoas 7
Motivação 5
Disciplina 4
Satisfação no Trabalho
100%
Fadiga
0%
Função Olheiro
Salário 57.3K p/s
Contrato 14.03.2028

Desempenho

Comportamento Bom
Eficácia do Treinamento
55%
Desenvolvimento do Jogador
35%
Prevenção de Lesões
55%
Implementação Tática
60%

Eventos Recentes

Negociação de contrato iniciada agora
Participou de uma reunião de recrutamento agora
Recomendou um alvo de transferência agora
Recomendou um alvo de transferência agora
Recomendou um alvo de transferência agora
Negociação de contrato iniciada 7d atrás
Negociação de contrato iniciada 7d atrás
Negociação de contrato iniciada 7d atrás

Monitorando agora

118
Jogador Clube Status Habilidade Confiança Observado Última observação Último voto
Josh Nichols Tranmere Rovers Ativo 115 / 131 40% 1 11.02.2028 -
Eduardo Felicíssimo Sporting CP Ativo 130 / 120 40% 1 11.02.2028 -
Trey Nyoni Rotherham United Ativo 133 / 149 40% 1 10.02.2028 -
Ayden Heaven Luton Town Ativo 142 / 144 40% 2 09.02.2028 -
Colin Guske Orlando City Ativo 89 / 95 40% 1 09.02.2028 -
Avery Appiah Ajax Ativo 124 / 130 40% 1 08.02.2028 -
Jorthy Mokio ADO Den Haag Ativo 123 / 133 40% 1 08.02.2028 -
Darío Espínola Pribram Ativo 79 / 84 40% 1 17.01.2028 -
Taher Mohamed Real Salt Lake Negociando 119 / 119 67% 1 01.01.2028 Aprovar
Osman Addo Viborg Ativo 113 / 114 58% 1 01.01.2028 Aprovar
Mikel Gogorza FC Midtjylland Ativo 124 / 133 40% 1 31.12.2027 Mais informações
Gabriel Mec Porto Ativo 114 / 121 40% 1 31.12.2027 -
Hosea Michael Remo Stars Ativo 79 / 77 40% 1 08.09.2027 -
Mbekezeli Mbokazi Chicago Fire Ativo 120 / 121 40% 1 08.09.2027 -
Mads Bomholt Stabaek Ativo 107 / 126 40% 1 07.09.2027 -
Alexandr Voronovich Shukura Ativo 79 / 71 40% 1 07.09.2027 -
Yiandro Raap Ilves Ativo 92 / 98 40% 1 30.08.2027 -
Chibueze Oputa Rangers International Ativo 71 / 110 40% 1 30.08.2027 -
Bilal Brahimi Viborg Ativo 102 / 104 58% 1 28.06.2027 Aprovar
Tim Freriks Viborg Ativo 104 / 102 58% 1 21.06.2027 Aprovar
Juan Bezerra BK Hacken Ativo 117 / 121 66% 1 01.06.2027 Aprovar
Razvan Mitrita San Diego Football Club Negociando 118 / 120 66% 1 01.06.2027 Aprovar
Lewis Morgan SuperSport United Ativo 126 / 126 67% 1 01.06.2027 Aprovar
André Miranda Porto Ativo 109 / 118 40% 2 31.05.2027 -
Darryl Bakola Padova Ativo 101 / 119 40% 1 31.05.2027 -
Davis Keillor-Dunn Wrexham Ativo 114 / 122 40% 1 30.05.2027 -
Tyrese Campbell Sheffield United Ativo 136 / 121 40% 3 29.05.2027 Observar
Simone Mazzocchi Cosenza Ativo 114 / 125 40% 3 27.05.2027 -
Karlan Grant West Bromwich Albion Ativo 115 / 119 40% 1 27.05.2027 -
Cristian Shpendi Cesena Ativo 140 / 120 40% 2 26.05.2027 -
Adam Bakoune Ospitaletto Ativo 105 / 110 40% 1 26.05.2027 -
Cameron Archer Southampton Ativo 131 / 133 40% 1 26.05.2027 -
Dom Ballard Leyton Orient Ativo 119 / 131 40% 2 25.05.2027 -
Zian Flemming Ipswich Town Ativo 141 / 137 40% 2 23.05.2027 -
Kamarni Ryan Burton Albion Ativo 101 / 96 40% 2 23.05.2027 -
Alphadjo Cissé Como Ativo 125 / 134 40% 1 23.05.2027 -
Shea Lacey Wolverhampton Ativo 117 / 133 40% 2 22.05.2027 -
Zane Albarus Cambridge United Ativo 89 / 101 40% 1 22.05.2027 -
Aune Heggebø West Bromwich Albion Ativo 128 / 120 40% 3 19.05.2027 -
Evidence Makgopa Orlando Pirates Ativo 101 / 122 40% 2 18.05.2027 -
Caleb Yirenkyi Coventry City Ativo 139 / 151 40% 2 17.05.2027 -
Marco Tumminello Benevento Ativo 111 / 122 40% 3 17.05.2027 -
Will Lankshear Middlesbrough Ativo 119 / 122 40% 5 14.05.2027 -
Ethan Williams Peterborough United Ativo 116 / 122 40% 1 14.05.2027 -
Callum O'Hare Sheffield United Ativo 138 / 133 40% 2 11.05.2027 -
Peter Amidu Acquah Asante Kotoko Ativo 85 / 117 40% 2 10.05.2027 -
Dany Mota Monza Ativo 133 / 125 40% 3 06.05.2027 Observar
Themba Ngcobo SuperSport United Ativo 126 / 99 40% 2 05.05.2027 -
Joe Gelhardt Hull City Ativo 140 / 136 40% 5 02.05.2027 Observar
Sam Bell Bristol City Ativo 124 / 120 40% 1 02.05.2027 -
Luis Vázquez Birmingham Ativo 122 / 127 40% 2 01.05.2027 -
Mathias Jørgensen Blackburn Rovers Ativo 127 / 108 40% 2 30.04.2027 -
Jens Odgaard Bologna Ativo 135 / 135 40% 1 30.04.2027 -
Araphat Mohammed Berekum Chelsea Ativo 94 / 119 40% 1 30.04.2027 -
Percy Jali Free State Stars Ativo 101 / 106 40% 1 30.04.2027 -
Hazeem Bakre Crawley Town Ativo 86 / 83 40% 2 29.04.2027 -
Sascha Britschgi Padova Ativo 128 / 136 40% 1 29.04.2027 -
Jayden Addai Como Ativo 125 / 125 40% 2 27.04.2027 -
Othmane Maamma Watford Ativo 117 / 133 40% 1 27.04.2027 -
Lander Astiazarán Real Sociedad Ativo 95 / 101 40% 1 18.04.2027 -
Christ Inao Oulaï Fiorentina Ativo 136 / 149 40% 1 18.04.2027 -
Morgan Whittaker Middlesbrough Ativo 131 / 125 40% 2 15.04.2027 -
Patson Daka Leicester City Ativo 120 / 135 40% 2 14.04.2027 -
Ilyas Ansah Hull City Ativo 141 / 129 40% 1 14.04.2027 -
Youssoufa Moukoko FC Copenhagen Ativo 134 / 126 40% 2 10.04.2027 -
Tyreece Campbell Charlton Athletic Ativo 119 / 131 40% 2 08.04.2027 -
Bernat Guiu Virtus Entella Ativo 124 / 121 40% 1 07.04.2027 -
Abu Kamara Portsmouth Ativo 109 / 118 40% 1 06.04.2027 -
Tom Cannon Sheffield United Ativo 122 / 135 40% 1 05.04.2027 Mais informações
Mfundo Vilakazi Kaizer Chiefs Ativo 125 / 130 40% 2 03.04.2027 -
James Dornelly Peterborough United Ativo 106 / 112 40% 1 03.04.2027 -
Tommy Conway Middlesbrough Ativo 127 / 131 40% 1 31.03.2027 -
Oleksii Hutsuliak Polissia Ativo 120 / 114 40% 1 30.03.2027 -
Konan N'Dri Lecce Ativo 120 / 131 40% 1 29.03.2027 -
Giuseppe Di Serio Spezia Ativo 125 / 132 40% 1 28.03.2027 -
Joel McGregor Swindon Town Ativo 84 / 99 40% 2 27.03.2027 -
Yousef Salech Cardiff City Ativo 126 / 113 40% 1 27.03.2027 -
Kutlwano Letlhaku Ajax Cape Town Ativo 129 / 121 40% 1 27.03.2027 -
Mihael Mlinarić Zaglebie Ativo 113 / 128 40% 1 23.03.2027 -
Mike Themsen Randers Ativo 113 / 131 40% 1 19.03.2027 -
Pablo Rodríguez Lech Ativo 135 / 133 40% 1 18.03.2027 -
Luke Baartman ES Mostaganem Ativo 90 / 107 40% 1 15.03.2027 -
Jan Bürger Gillingham Ativo 101 / 123 40% 2 12.03.2027 -
Thulani Dala Platinum Stars Ativo 108 / 83 40% 2 11.03.2027 -
Fuzy Taylor Medeama Ativo 94 / 67 40% 1 06.03.2027 -
Riley Owen Trento Ativo 111 / 106 40% 1 03.03.2027 -
Mandla Erasmus SuperSport United Ativo 125 / 139 40% 3 31.12.2026 -
Kasey McAteer Ipswich Town Ativo 123 / 138 40% 1 27.12.2026 -
Mads Frøkjær Brondby Ativo 121 / 115 40% 1 27.12.2026 -
Reda Khadra Qarabag Ativo 137 / 127 40% 2 26.12.2026 -
Derensili Sanches Fernandes Huddersfield Town Ativo 125 / 115 40% 1 26.12.2026 -
Tom Fellows Southampton Ativo 133 / 141 40% 1 24.12.2026 -
Tobias Bech AGF Ativo 139 / 133 40% 1 24.12.2026 -
Daniel Kyerewaa Reading Ativo 103 / 116 40% 3 20.12.2026 -
Florentino Luís Ipswich Town Ativo 148 / 149 40% 1 20.12.2026 -
Kristoffer Lund Birmingham Ativo 120 / 119 40% 1 11.12.2026 -
Jack McGlynn Stoke City Ativo 129 / 135 40% 1 11.12.2026 -
Rasmus Carstensen AGF Ativo 125 / 123 40% 1 09.12.2026 -
Jean-Manuel Mbom Viborg Ativo 127 / 125 40% 1 08.12.2026 -
Alan Lescano Argentinos Juniors Ativo 140 / 127 40% 1 08.12.2026 Mais informações
Edward Chilufya FC Midtjylland Ativo 116 / 128 40% 1 03.12.2026 -
Elies Mahmoud Randers Ativo 128 / 123 40% 2 28.11.2026 -
Sayfallah Ltaief Cracovia Ativo 114 / 127 40% 2 28.11.2026 -
Ramiro Ruiz Rodríguez Atlético Tucumán Ativo 131 / 136 40% 1 26.11.2026 -
Kevin Yakob AGF Ativo 122 / 125 40% 1 25.11.2026 -
Ibrahim Adel FC Nordsjaelland Ativo 129 / 134 40% 2 18.11.2026 -
Suleiman Camara Slovan Bratislava Ativo 128 / 115 40% 2 17.11.2026 -
Sead Hakšabanović Malmo FF Ativo 121 / 126 40% 1 11.11.2026 -
Bamba Dieng Crvena Zvezda Ativo 129 / 133 40% 1 11.11.2026 -
Tshepang Moremi Orlando Pirates Ativo 105 / 105 40% 2 03.11.2026 -
Marcelo Allende Mamelodi Sundowns Ativo 131 / 114 40% 1 20.10.2026 -
Griffin Yow New England Revolution Ativo 118 / 145 40% 1 20.10.2026 -
Facundo Mura Inter Miami CF Ativo 123 / 131 40% 1 13.10.2026 -
Tadeo Allende Inter Miami CF Ativo 137 / 107 40% 1 13.10.2026 -
Yuber Quiñónes Deportivo Pereira Ativo 125 / 124 40% 1 11.10.2026 -
Cheikh Sabaly Vancouver Whitecaps Ativo 134 / 118 40% 1 10.10.2026 -
Marco Pašalić Orlando City Ativo 140 / 147 40% 1 06.10.2026 -
Charly Nouck Viborg Ativo 103 / 98 55% 1 17.08.2026 -